createdAt,value
2022-11-14T00:00:16.658Z,0.63
2022-11-14T00:03:02.947Z,0.64
2022-11-14T00:05:48.602Z,0.66
2022-11-14T00:08:33.734Z,0.63
2022-11-14T00:11:19.162Z,0.56
2022-11-14T00:14:04.407Z,0.54
2022-11-14T00:16:49.805Z,0.57
2022-11-14T00:19:35.558Z,0.63
2022-11-14T00:22:20.772Z,0.67
2022-11-14T00:25:06.076Z,0.58
2022-11-14T00:27:51.832Z,0.43
2022-11-14T00:30:37.320Z,0.35
2022-11-14T00:33:22.682Z,0.25
2022-11-14T00:36:08.181Z,0.13
2022-11-14T00:38:54.899Z,-0.12
2022-11-14T00:41:40.735Z,-0.31
2022-11-14T00:44:26.229Z,-0.39
2022-11-14T00:47:11.893Z,-0.48
2022-11-14T00:49:57.508Z,-0.45
2022-11-14T00:52:42.662Z,-0.46
2022-11-14T00:55:28.202Z,-0.44
2022-11-14T00:58:13.377Z,-0.40
2022-11-14T01:00:59.641Z,-0.38
2022-11-14T01:03:47.514Z,-0.35
2022-11-14T01:06:32.885Z,-0.34
2022-11-14T01:09:18.520Z,-0.27
2022-11-14T01:12:04.224Z,-0.23
2022-11-14T01:14:49.618Z,-0.18
2022-11-14T01:17:34.669Z,-0.23
2022-11-14T01:20:19.704Z,-0.28
2022-11-14T01:23:05.140Z,-0.32
2022-11-14T01:25:50.258Z,-0.34
2022-11-14T01:28:36.093Z,-0.37
2022-11-14T01:31:22.720Z,-0.43
2022-11-14T01:34:08.209Z,-0.47
2022-11-14T01:36:53.205Z,-0.46
2022-11-14T01:39:38.326Z,-0.47
2022-11-14T01:42:27.273Z,-0.46
2022-11-14T01:45:31.495Z,-0.44
2022-11-14T01:48:20.660Z,-0.43
2022-11-14T01:51:09.220Z,-0.46
2022-11-14T01:53:56.121Z,-0.51
2022-11-14T01:56:45.689Z,-0.49
2022-11-14T01:59:38.631Z,-0.49
2022-11-14T02:02:25.137Z,-0.52
2022-11-14T02:05:11.047Z,-0.55
2022-11-14T02:07:56.385Z,-0.56
2022-11-14T02:10:41.618Z,-0.55
2022-11-14T02:13:27.313Z,-0.57
2022-11-14T02:16:15.790Z,-0.60
2022-11-14T02:19:01.073Z,-0.62
2022-11-14T02:21:46.853Z,-0.61
2022-11-14T02:24:31.954Z,-0.60
2022-11-14T02:27:16.844Z,-0.64
2022-11-14T02:30:06.783Z,-0.61
2022-11-14T02:35:57.228Z,-0.62
2022-11-14T02:38:42.534Z,-0.65
2022-11-14T02:41:28.234Z,-0.63
2022-11-14T02:44:13.714Z,-0.67
2022-11-14T02:46:59.961Z,-0.75
2022-11-14T02:49:45.339Z,-0.90
2022-11-14T02:52:30.576Z,-0.92
2022-11-14T02:55:16.292Z,-0.92
2022-11-14T02:58:01.573Z,-0.95
2022-11-14T03:01:13.698Z,-1.02
2022-11-14T03:03:52.428Z,-1.02
2022-11-14T03:06:37.747Z,-1.03
2022-11-14T03:09:22.864Z,-1.02
2022-11-14T03:12:08.334Z,-1.03
2022-11-14T03:14:54.517Z,-1.03
2022-11-14T03:17:40.117Z,-1.08
2022-11-14T03:20:25.594Z,-1.13
2022-11-14T03:23:10.941Z,-1.13
2022-11-14T03:25:59.181Z,-1.13
2022-11-14T03:28:44.959Z,-1.12
2022-11-14T03:31:30.037Z,-1.12
2022-11-14T03:34:15.520Z,-1.12
2022-11-14T03:37:00.954Z,-1.10
2022-11-14T03:39:46.315Z,-1.11
2022-11-14T03:42:35.293Z,-1.07
2022-11-14T03:45:23.532Z,-1.10
2022-11-14T03:48:09.100Z,-1.13
2022-11-14T03:50:55.976Z,-1.15
2022-11-14T03:53:41.204Z,-1.19
2022-11-14T03:56:27.489Z,-1.22
2022-11-14T03:59:13.267Z,-1.20
2022-11-14T04:01:58.749Z,-1.18
2022-11-14T04:04:44.048Z,-1.15
2022-11-14T04:07:30.049Z,-1.16
2022-11-14T04:10:15.485Z,-1.17
2022-11-14T04:13:00.955Z,-1.21
2022-11-14T04:15:46.712Z,-1.20
2022-11-14T04:18:32.440Z,-1.23
2022-11-14T04:21:17.662Z,-1.22
2022-11-14T04:24:08.491Z,-1.23
2022-11-14T04:26:56.410Z,-1.25
2022-11-14T04:29:41.962Z,-1.26
2022-11-14T04:32:27.540Z,-1.28
2022-11-14T04:35:12.827Z,-1.29
2022-11-14T04:37:58.050Z,-1.31
2022-11-14T04:40:48.598Z,-1.37
2022-11-14T04:43:34.090Z,-1.42
2022-11-14T04:46:19.541Z,-1.44
2022-11-14T04:49:04.587Z,-1.47
2022-11-14T04:51:49.973Z,-1.57
2022-11-14T04:54:35.616Z,-1.62
2022-11-14T04:57:21.063Z,-1.65
2022-11-14T05:00:07.185Z,-1.66
2022-11-14T05:02:52.272Z,-1.68
2022-11-14T05:05:41.759Z,-1.71
2022-11-14T05:08:28.265Z,-1.71
2022-11-14T05:11:14.823Z,-1.71
2022-11-14T05:13:59.975Z,-1.75
2022-11-14T05:16:45.855Z,-1.70
2022-11-14T05:19:31.027Z,-1.69
2022-11-14T05:22:16.117Z,-1.74
2022-11-14T05:25:02.340Z,-1.75
2022-11-14T05:27:47.592Z,-1.73
2022-11-14T05:30:33.268Z,-1.75
2022-11-14T05:33:18.882Z,-1.79
2022-11-14T05:36:05.218Z,-1.80
2022-11-14T05:41:50.257Z,-1.91
2022-11-14T05:44:35.565Z,-1.97
2022-11-14T05:47:20.978Z,-2.01
2022-11-14T05:50:09.916Z,-2.03
2022-11-14T05:52:56.495Z,-2.04
2022-11-14T05:55:41.790Z,-2.02
2022-11-14T05:58:27.287Z,-2.00
2022-11-14T06:01:17.244Z,-1.96
2022-11-14T06:04:02.753Z,-1.97
2022-11-14T06:06:47.853Z,-2.00
2022-11-14T06:09:33.130Z,-1.98
2022-11-14T06:12:18.732Z,-1.98
2022-11-14T06:15:04.758Z,-1.99
2022-11-14T06:17:52.235Z,-1.99
2022-11-14T06:20:37.736Z,-1.99
2022-11-14T06:23:24.932Z,-1.98
2022-11-14T06:26:25.799Z,-2.00
2022-11-14T06:29:13.980Z,-1.92
2022-11-14T06:31:59.105Z,-1.88
2022-11-14T06:34:44.635Z,-1.85
2022-11-14T06:37:33.538Z,-1.82
2022-11-14T06:40:19.202Z,-1.75
2022-11-14T06:43:04.918Z,-1.76
2022-11-14T06:45:53.379Z,-1.81
2022-11-14T06:48:39.055Z,-1.81
2022-11-14T06:51:30.490Z,-1.67
2022-11-14T06:54:15.811Z,-1.52
2022-11-14T06:57:01.456Z,-1.39
2022-11-14T06:59:48.223Z,-1.20
2022-11-14T07:02:33.532Z,-1.08
2022-11-14T07:05:18.864Z,-0.93
2022-11-14T07:08:04.734Z,-0.75
2022-11-14T07:10:50.235Z,-0.60
2022-11-14T07:13:36.545Z,-0.55
2022-11-14T07:16:26.055Z,-0.44
2022-11-14T07:19:11.556Z,-0.27
2022-11-14T07:22:04.432Z,-0.09
2022-11-14T07:24:50.497Z,0.23
2022-11-14T07:27:36.106Z,0.29
2022-11-14T07:30:22.128Z,0.52
2022-11-14T07:33:07.763Z,0.70
2022-11-14T07:35:53.367Z,0.67
2022-11-14T07:38:38.730Z,1.00
2022-11-14T07:41:25.559Z,0.78
2022-11-14T07:44:11.144Z,0.83
2022-11-14T07:46:56.655Z,1.23
2022-11-14T07:49:42.288Z,1.87
2022-11-14T07:52:27.691Z,2.39
2022-11-14T07:55:12.836Z,2.37
2022-11-14T07:58:04.512Z,2.26
2022-11-14T08:00:49.671Z,2.50
2022-11-14T08:03:35.431Z,3.03
2022-11-14T08:06:21.641Z,2.83
2022-11-14T08:09:09.157Z,3.17
2022-11-14T08:11:57.397Z,3.59
2022-11-14T08:14:42.608Z,3.21
2022-11-14T08:17:27.924Z,3.09
2022-11-14T08:20:16.597Z,3.50
2022-11-14T08:23:02.134Z,3.85
2022-11-14T08:25:47.904Z,3.67
2022-11-14T08:28:35.902Z,3.89
2022-11-14T08:31:23.237Z,4.25
2022-11-14T08:34:09.971Z,4.10
2022-11-14T08:36:57.454Z,4.21
2022-11-14T08:39:45.417Z,4.15
2022-11-14T08:42:34.225Z,4.58
2022-11-14T08:45:19.539Z,5.04
2022-11-14T08:48:04.625Z,5.33
2022-11-14T08:50:55.669Z,4.86
2022-11-14T08:53:41.164Z,4.87
2022-11-14T08:56:26.422Z,5.31
2022-11-14T08:59:11.596Z,4.97
2022-11-14T09:01:57.319Z,4.75
2022-11-14T09:04:43.019Z,5.43
2022-11-14T09:07:29.062Z,5.42
2022-11-14T09:10:14.707Z,4.81
2022-11-14T09:13:09.910Z,5.24
2022-11-14T09:16:13.512Z,5.56
2022-11-14T09:18:58.683Z,5.42
2022-11-14T09:21:43.806Z,5.65
2022-11-14T09:27:31.296Z,6.51
2022-11-14T09:30:19.775Z,7.05
2022-11-14T09:33:11.241Z,7.78
2022-11-14T09:36:00.854Z,8.07
2022-11-14T09:38:46.432Z,8.11
2022-11-14T09:41:34.605Z,8.00
2022-11-14T09:44:34.933Z,7.64
2022-11-14T09:47:21.942Z,7.68
2022-11-14T09:50:12.929Z,7.35
2022-11-14T09:52:59.327Z,7.48
2022-11-14T09:55:44.569Z,7.83
2022-11-14T09:58:30.324Z,7.01
2022-11-14T10:01:25.400Z,6.97
2022-11-14T10:04:19.633Z,7.09
2022-11-14T10:07:08.327Z,7.08
2022-11-14T10:09:59.287Z,7.60
2022-11-14T10:13:05.063Z,8.06
2022-11-14T10:15:55.242Z,7.94
2022-11-14T10:18:43.592Z,7.75
2022-11-14T10:21:28.955Z,8.68
2022-11-14T10:24:14.352Z,8.72
2022-11-14T10:27:03.895Z,8.99
2022-11-14T10:29:58.383Z,8.89
2022-11-14T10:33:03.435Z,8.46
2022-11-14T10:35:51.168Z,8.86
2022-11-14T10:38:43.680Z,9.36
2022-11-14T10:41:55.093Z,9.57
2022-11-14T10:44:39.375Z,8.92
2022-11-14T10:47:24.834Z,8.64
2022-11-14T10:50:20.206Z,9.09
2022-11-14T10:53:07.439Z,9.75
2022-11-14T10:56:07.938Z,9.74
2022-11-14T10:58:53.399Z,9.60
2022-11-14T11:01:38.901Z,8.44
2022-11-14T11:04:32.123Z,8.29
2022-11-14T11:08:10.194Z,7.81
2022-11-14T11:11:25.180Z,7.77
2022-11-14T11:14:19.660Z,7.81
2022-11-14T11:17:10.496Z,8.47
2022-11-14T11:19:55.871Z,8.96
2022-11-14T11:22:43.468Z,8.82
2022-11-14T11:25:29.689Z,8.45
2022-11-14T11:28:19.141Z,8.32
2022-11-14T11:31:06.343Z,8.87
2022-11-14T11:33:52.090Z,8.98
2022-11-14T11:36:40.575Z,9.18
2022-11-14T11:39:27.585Z,9.29
2022-11-14T11:43:36.909Z,7.91
2022-11-14T11:45:57.007Z,7.57
2022-11-14T11:48:42.703Z,8.09
2022-11-14T11:51:27.988Z,7.54
2022-11-14T11:54:17.332Z,7.37
2022-11-14T11:57:02.899Z,7.63
2022-11-14T11:59:49.711Z,8.26
2022-11-14T12:02:37.524Z,7.49
2022-11-14T12:05:26.908Z,8.19
2022-11-14T12:08:41.143Z,8.06
2022-11-14T12:11:27.134Z,7.05
2022-11-14T12:14:31.277Z,7.35
2022-11-14T12:17:25.834Z,7.17
2022-11-14T12:20:17.037Z,7.01
2022-11-14T12:23:21.407Z,7.01
2022-11-14T12:26:13.977Z,7.09
2022-11-14T12:28:59.590Z,7.34
2022-11-14T12:31:45.394Z,7.43
2022-11-14T12:34:35.549Z,6.35
2022-11-14T12:37:22.739Z,6.04
2022-11-14T12:40:09.049Z,5.88
2022-11-14T12:42:54.761Z,5.43
2022-11-14T12:45:40.743Z,5.36
2022-11-14T12:48:26.294Z,5.90
2022-11-14T12:51:32.196Z,5.56
2022-11-14T12:54:36.207Z,3.85
2022-11-14T12:57:50.876Z,2.71
2022-11-14T13:00:38.883Z,1.49
2022-11-14T13:03:36.916Z,1.05
2022-11-14T13:06:40.816Z,0.93
2022-11-14T13:09:27.018Z,0.79
2022-11-14T13:12:37.855Z,0.48
2022-11-14T13:16:00.977Z,0.33
2022-11-14T13:19:20.236Z,0.27
2022-11-14T13:22:12.005Z,0.28
2022-11-14T13:25:10.523Z,0.14
2022-11-14T13:28:08.065Z,-0.04
2022-11-14T13:31:14.413Z,-0.24
2022-11-14T13:34:02.841Z,-0.39
2022-11-14T13:36:48.424Z,-0.39
2022-11-14T13:39:52.582Z,-0.52
2022-11-14T13:42:58.351Z,-0.54
2022-11-14T13:46:01.553Z,-0.38
2022-11-14T13:48:48.798Z,-0.52
2022-11-14T13:51:43.468Z,-0.63
2022-11-14T13:54:29.548Z,-0.75
2022-11-14T13:57:15.462Z,-0.65
2022-11-14T14:00:21.214Z,-0.74
2022-11-14T14:03:16.011Z,-0.90
2022-11-14T14:06:08.567Z,-1.00
2022-11-14T14:08:57.112Z,-1.10
2022-11-14T14:11:43.358Z,-1.11
2022-11-14T14:14:47.858Z,-1.13
2022-11-14T14:17:42.613Z,-1.13
2022-11-14T14:20:28.524Z,-1.15
2022-11-14T14:23:32.736Z,-1.20
2022-11-14T14:26:27.418Z,-1.15
2022-11-14T14:29:23.664Z,-1.31
2022-11-14T14:32:14.149Z,-1.47
2022-11-14T14:35:01.000Z,-1.41
2022-11-14T14:40:54.264Z,-1.47
2022-11-14T14:43:40.718Z,-1.37
2022-11-14T14:46:30.018Z,-1.43
2022-11-14T14:49:23.094Z,-1.46
2022-11-14T14:52:28.834Z,-1.56
2022-11-14T14:55:35.731Z,-1.66
2022-11-14T14:58:26.141Z,-1.72
2022-11-14T15:01:19.308Z,-1.76
2022-11-14T15:04:14.684Z,-1.84
2022-11-14T15:07:00.603Z,-1.86
2022-11-14T15:09:53.395Z,-1.82
2022-11-14T15:12:39.372Z,-1.81
2022-11-14T15:15:27.820Z,-1.90
2022-11-14T15:18:34.161Z,-1.92
2022-11-14T15:21:27.473Z,-2.00
2022-11-14T15:24:14.152Z,-2.04
2022-11-14T15:26:59.687Z,-1.88
2022-11-14T15:29:46.423Z,-1.74
2022-11-14T15:32:32.145Z,-1.62
2022-11-14T15:35:25.157Z,-1.59
2022-11-14T15:38:41.821Z,-1.40
2022-11-14T15:41:20.468Z,-1.23
2022-11-14T15:44:06.184Z,-1.17
2022-11-14T15:46:51.899Z,-1.17
2022-11-14T15:49:37.588Z,-1.18
2022-11-14T15:52:28.812Z,-1.24
2022-11-14T15:55:21.686Z,-1.11
2022-11-14T16:01:17.484Z,-0.99
2022-11-14T16:04:03.037Z,-0.94
2022-11-14T16:06:48.753Z,-0.98
2022-11-14T16:09:34.862Z,-0.98
2022-11-14T16:12:20.260Z,-1.00
2022-11-14T16:15:06.039Z,-1.01
2022-11-14T16:17:51.673Z,-0.96
2022-11-14T16:20:39.688Z,-0.92
2022-11-14T16:23:24.912Z,-0.99
2022-11-14T16:26:10.490Z,-1.03
2022-11-14T16:28:57.262Z,-1.05
2022-11-14T16:31:42.823Z,-0.99
2022-11-14T16:34:28.522Z,-1.00
2022-11-14T16:37:14.469Z,-0.96
2022-11-14T16:39:59.867Z,-0.96
2022-11-14T16:42:48.090Z,-0.94
2022-11-14T16:45:34.184Z,-0.95
2022-11-14T16:48:19.753Z,-0.80
2022-11-14T16:51:20.175Z,-0.72
2022-11-14T16:54:11.299Z,-0.79
2022-11-14T16:56:57.635Z,-0.89
2022-11-14T16:59:42.855Z,-0.87
2022-11-14T17:02:30.323Z,-0.83
2022-11-14T17:05:16.539Z,-0.87
2022-11-14T17:08:02.173Z,-0.96
2022-11-14T17:10:47.701Z,-0.94
2022-11-14T17:13:33.364Z,-0.93
2022-11-14T17:16:19.811Z,-0.97
2022-11-14T17:19:05.585Z,-0.91
2022-11-14T17:21:50.910Z,-1.00
2022-11-14T17:24:36.568Z,-1.05
2022-11-14T17:27:21.993Z,-1.01
2022-11-14T17:30:10.433Z,-0.97
2022-11-14T17:33:02.526Z,-0.98
2022-11-14T17:35:52.333Z,-0.96
2022-11-14T17:38:38.153Z,-0.99
2022-11-14T17:41:24.195Z,-0.93
2022-11-14T17:44:10.005Z,-0.88
2022-11-14T17:46:56.183Z,-0.91
2022-11-14T17:49:41.727Z,-0.88
2022-11-14T17:52:27.451Z,-0.95
2022-11-14T17:55:15.725Z,-0.97
2022-11-14T17:58:01.176Z,-0.99
2022-11-14T18:00:46.460Z,-1.02
2022-11-14T18:03:31.868Z,-1.05
2022-11-14T18:06:21.277Z,-1.06
2022-11-14T18:09:10.189Z,-1.03
2022-11-14T18:11:58.613Z,-0.99
2022-11-14T18:14:44.213Z,-0.96
2022-11-14T18:17:31.837Z,-0.94
2022-11-14T18:20:17.893Z,-0.92
2022-11-14T18:23:03.198Z,-0.92
2022-11-14T18:25:49.055Z,-0.99
2022-11-14T18:28:34.495Z,-1.00
2022-11-14T18:31:22.302Z,-1.08
2022-11-14T18:34:07.980Z,-1.08
2022-11-14T18:36:53.396Z,-1.08
2022-11-14T18:39:43.875Z,-1.10
2022-11-14T18:42:31.735Z,-1.05
2022-11-14T18:45:17.419Z,-1.04
2022-11-14T18:48:03.031Z,-0.97
2022-11-14T18:50:48.746Z,-0.94
2022-11-14T18:53:34.654Z,-0.98
2022-11-14T18:56:26.616Z,-0.91
2022-11-14T18:59:12.417Z,-0.88
2022-11-14T19:01:58.511Z,-0.89
2022-11-14T19:04:44.004Z,-0.85
2022-11-14T19:07:30.313Z,-0.91
2022-11-14T19:10:18.937Z,-0.98
2022-11-14T19:13:04.488Z,-0.98
2022-11-14T19:15:50.078Z,-1.03
2022-11-14T19:18:37.151Z,-1.02
2022-11-14T19:21:22.408Z,-1.02
2022-11-14T19:24:07.987Z,-1.07
2022-11-14T19:26:55.440Z,-1.12
2022-11-14T19:29:41.006Z,-1.14
2022-11-14T19:32:26.617Z,-1.10
2022-11-14T19:35:17.235Z,-1.13
2022-11-14T19:38:05.482Z,-1.16
2022-11-14T19:40:51.848Z,-1.17
2022-11-14T19:43:38.270Z,-1.16
2022-11-14T19:46:25.416Z,-1.11
2022-11-14T19:49:10.930Z,-1.11
2022-11-14T19:51:56.749Z,-1.17
2022-11-14T19:54:42.679Z,-1.20
2022-11-14T20:00:30.066Z,-1.26
2022-11-14T20:03:29.325Z,-1.29
2022-11-14T20:06:16.235Z,-1.22
2022-11-14T20:09:02.527Z,-1.17
2022-11-14T20:11:47.897Z,-1.18
2022-11-14T20:14:36.055Z,-1.16
2022-11-14T20:17:21.268Z,-1.15
2022-11-14T20:20:07.122Z,-1.15
2022-11-14T20:22:52.328Z,-1.15
2022-11-14T20:25:38.302Z,-1.17
2022-11-14T20:28:23.760Z,-1.20
2022-11-14T20:31:14.179Z,-1.28
2022-11-14T20:33:59.354Z,-1.29
2022-11-14T20:39:56.552Z,-1.34
2022-11-14T20:42:41.917Z,-1.33
2022-11-14T20:45:27.503Z,-1.31
2022-11-14T20:48:13.143Z,-1.32
2022-11-14T20:51:02.791Z,-1.33
2022-11-14T20:53:48.693Z,-1.34
2022-11-14T20:56:34.131Z,-1.31
2022-11-14T20:59:19.695Z,-1.34
2022-11-14T21:02:05.216Z,-1.37
2022-11-14T21:04:50.528Z,-1.36
2022-11-14T21:07:35.559Z,-1.35
2022-11-14T21:10:39.321Z,-1.34
2022-11-14T21:13:43.426Z,-1.33
2022-11-14T21:16:32.659Z,-1.26
2022-11-14T21:19:18.422Z,-1.24
2022-11-14T21:22:03.915Z,-1.25
2022-11-14T21:24:49.514Z,-1.20
2022-11-14T21:27:34.713Z,-1.28
2022-11-14T21:30:20.477Z,-1.36
2022-11-14T21:33:05.973Z,-1.34
2022-11-14T21:35:51.961Z,-1.33
2022-11-14T21:38:37.627Z,-1.33
2022-11-14T21:41:23.435Z,-1.35
2022-11-14T21:44:09.634Z,-1.36
2022-11-14T21:46:54.845Z,-1.38
2022-11-14T21:49:40.209Z,-1.36
2022-11-14T21:52:25.322Z,-1.33
2022-11-14T21:55:10.325Z,-1.30
2022-11-14T21:57:56.807Z,-1.33
2022-11-14T22:00:42.078Z,-1.37
2022-11-14T22:03:46.254Z,-1.40
2022-11-14T22:06:31.854Z,-1.42
2022-11-14T22:09:17.461Z,-1.40
2022-11-14T22:12:03.269Z,-1.42
2022-11-14T22:14:48.848Z,-1.42
2022-11-14T22:17:36.715Z,-1.43
2022-11-14T22:20:23.561Z,-1.47
2022-11-14T22:23:09.095Z,-1.51
2022-11-14T22:25:58.640Z,-1.53
2022-11-14T22:28:43.981Z,-1.55
2022-11-14T22:31:29.588Z,-1.56
2022-11-14T22:34:16.994Z,-1.60
2022-11-14T22:37:02.274Z,-1.61
2022-11-14T22:39:47.274Z,-1.62
2022-11-14T22:42:32.912Z,-1.64
2022-11-14T22:45:18.486Z,-1.69
2022-11-14T22:48:06.508Z,-1.71
2022-11-14T22:50:58.806Z,-1.78
2022-11-14T22:53:54.495Z,-1.80
2022-11-14T22:56:40.753Z,-1.79
2022-11-14T22:59:26.318Z,-1.85
2022-11-14T23:02:11.857Z,-1.86
2022-11-14T23:04:57.413Z,-1.84
2022-11-14T23:07:43.035Z,-1.81
2022-11-14T23:10:28.686Z,-1.78
2022-11-14T23:13:14.275Z,-1.78
2022-11-14T23:16:02.031Z,-1.77
2022-11-14T23:18:47.716Z,-1.76
2022-11-14T23:21:37.736Z,-1.71
2022-11-14T23:24:23.310Z,-1.66
2022-11-14T23:27:08.422Z,-1.67
2022-11-14T23:29:54.132Z,-1.69
2022-11-14T23:32:39.589Z,-1.67
2022-11-14T23:35:25.181Z,-1.65
2022-11-14T23:38:10.886Z,-1.66
2022-11-14T23:40:57.117Z,-1.66
2022-11-14T23:43:42.553Z,-1.66
2022-11-14T23:46:27.551Z,-1.66
2022-11-14T23:49:13.133Z,-1.68
2022-11-14T23:51:58.691Z,-1.72
2022-11-14T23:54:44.211Z,-1.80
2022-11-14T23:57:30.946Z,-1.79
